Time;durP1;ratioP1;P1;durP2;ratioP2;P2;SDS_P1;SDS_P2;PMS_P1;PMS_P2;Temp;Humidity;BMP_temperature;BMP_pressure;BME280_temperature;BME280_humidity;BME280_pressure;Samples;Min_cycle;Max_cycle;Signal;HPM_P1;HPM_P2
2022/06/07 00:00:56;;;;;;;7.70;6.90;;;18.40;99.90;;;;;;5094998;28;20456;-45
2022/06/07 00:03:22;;;;;;;7.73;6.93;;;18.10;99.90;;;;;;5094194;28;20443;-45
2022/06/07 00:05:49;;;;;;;9.40;7.47;;;18.50;99.90;;;;;;5094942;28;20437;-46
2022/06/07 00:08:18;;;;;;;7.47;6.70;;;18.50;99.90;;;;;;5094960;28;20436;-45
2022/06/07 00:10:45;;;;;;;10.47;7.90;;;18.50;99.90;;;;;;5094669;28;20481;-45
2022/06/07 00:13:12;;;;;;;9.73;8.83;;;18.50;99.90;;;;;;5094735;28;20432;-45
2022/06/07 00:15:39;;;;;;;7.80;7.10;;;18.00;99.90;;;;;;5094984;28;20433;-44
2022/06/07 00:18:07;;;;;;;8.83;7.13;;;18.50;99.90;;;;;;5094972;28;20485;-45
2022/06/07 00:20:34;;;;;;;8.93;6.70;;;18.20;99.90;;;;;;5094215;28;20448;-45
2022/06/07 00:23:01;;;;;;;7.20;6.60;;;18.50;99.90;;;;;;5094673;28;20430;-45
2022/06/07 00:25:30;;;;;;;7.87;7.07;;;18.40;99.90;;;;;;5094430;28;20428;-45
2022/06/07 00:27:56;;;;;;;8.10;7.30;;;18.50;99.90;;;;;;5094634;28;20436;-45
2022/06/07 00:30:23;;;;;;;8.33;7.23;;;18.30;99.90;;;;;;5114692;22;20491;-50
2022/06/07 00:32:50;;;;;;;7.60;6.20;;;18.30;99.90;;;;;;5073215;28;20800;-51
2022/06/07 00:35:17;;;;;;;7.27;6.57;;;18.30;99.90;;;;;;5073537;28;20992;-51
2022/06/07 00:37:44;;;;;;;7.37;6.47;;;18.10;99.90;;;;;;5089009;28;20575;-51
2022/06/07 00:40:12;;;;;;;9.50;7.13;;;18.20;99.90;;;;;;5072907;28;20446;-51
2022/06/07 00:42:41;;;;;;;7.13;6.30;;;18.50;99.90;;;;;;5073368;28;20432;-51
2022/06/07 00:45:12;;;;;;;8.70;7.80;;;18.20;99.90;;;;;;5073251;28;20495;-51
2022/06/07 00:47:38;;;;;;;7.90;7.10;;;18.30;99.90;;;;;;5073328;28;20439;-51
2022/06/07 00:50:09;;;;;;;12.43;8.50;;;18.20;99.90;;;;;;5072759;28;20473;-50
2022/06/07 00:52:36;;;;;;;7.80;7.00;;;18.40;99.90;;;;;;5072944;28;20433;-51
2022/06/07 00:55:05;;;;;;;8.33;7.53;;;18.50;99.90;;;;;;5073059;28;20445;-51
2022/06/07 00:57:37;;;;;;;9.43;7.33;;;18.30;99.90;;;;;;5071726;28;20447;-51
2022/06/07 01:00:14;;;;;;;7.63;6.90;;;18.20;99.90;;;;;;5071201;28;20464;-51
2022/06/07 01:02:42;;;;;;;7.90;6.80;;;18.20;99.90;;;;;;5072567;28;20851;-51
2022/06/07 01:05:09;;;;;;;8.20;7.50;;;18.30;99.90;;;;;;5072845;28;20444;-51
2022/06/07 01:13:07;;;;;;;10.40;8.13;;;18.60;99.90;;;;;;5071315;28;20445;-51
2022/06/07 01:15:35;;;;;;;8.93;8.10;;;17.90;99.90;;;;;;5070997;28;20463;-51
2022/06/07 01:18:06;;;;;;;9.57;8.60;;;17.90;99.90;;;;;;5071334;28;20448;-51
2022/06/07 01:20:36;;;;;;;7.87;6.93;;;18.30;99.90;;;;;;5070913;28;20494;-51
2022/06/07 01:23:05;;;;;;;9.13;7.50;;;17.80;99.90;;;;;;5071257;28;20539;-51
2022/06/07 01:25:32;;;;;;;10.60;7.60;;;18.20;99.90;;;;;;5071164;28;20453;-51
2022/06/07 01:28:01;;;;;;;9.17;7.80;;;18.10;99.90;;;;;;5070906;28;20806;-51
2022/06/07 01:30:28;;;;;;;9.20;8.30;;;17.90;99.90;;;;;;5070284;28;21027;-51
2022/06/07 01:32:55;;;;;;;8.47;7.27;;;18.00;99.90;;;;;;5070571;28;20443;-50
2022/06/07 01:35:21;;;;;;;10.13;8.20;;;18.00;99.90;;;;;;5070911;28;20484;-51
2022/06/07 01:37:48;;;;;;;8.93;7.93;;;17.40;99.90;;;;;;5072450;28;20431;-51
2022/06/07 01:43:00;;;;;;;9.90;7.77;;;17.50;99.90;;;;;;5072839;28;20446;-51
2022/06/07 01:45:27;;;;;;;10.60;9.07;;;17.40;99.90;;;;;;5070750;28;20460;-51
2022/06/07 01:47:54;;;;;;;8.83;7.93;;;17.70;99.90;;;;;;5070673;28;20447;-52
2022/06/07 01:50:21;;;;;;;12.33;8.60;;;17.70;99.90;;;;;;5070466;28;20900;-51
2022/06/07 01:52:47;;;;;;;8.00;7.20;;;17.70;99.90;;;;;;5070793;28;20550;-51
2022/06/07 01:55:21;;;;;;;8.40;7.23;;;17.60;99.90;;;;;;5070843;28;20480;-51
2022/06/07 01:58:00;;;;;;;11.63;7.80;;;17.80;99.90;;;;;;5070795;28;20456;-51
2022/06/07 02:00:27;;;;;;;10.07;7.83;;;17.40;99.90;;;;;;5070249;28;20507;-51
2022/06/07 02:02:54;;;;;;;8.47;7.67;;;17.60;99.90;;;;;;5070514;28;20453;-51
2022/06/07 02:05:21;;;;;;;7.70;6.67;;;17.40;99.90;;;;;;5071076;28;20458;-51
2022/06/07 02:07:54;;;;;;;8.50;7.60;;;17.60;99.90;;;;;;5070691;28;20439;-50
2022/06/07 02:10:28;;;;;;;8.20;7.40;;;17.80;99.90;;;;;;5070168;28;20462;-51
2022/06/07 02:12:58;;;;;;;9.27;8.37;;;17.90;99.90;;;;;;5070348;28;20456;-51
2022/06/07 02:15:25;;;;;;;9.20;7.30;;;17.70;99.90;;;;;;5070452;28;20462;-51
2022/06/07 02:17:51;;;;;;;9.67;7.70;;;17.30;99.90;;;;;;5071624;28;20431;-51
2022/06/07 02:20:28;;;;;;;8.40;7.60;;;17.90;99.90;;;;;;5070019;28;22285;-51
2022/06/07 02:22:55;;;;;;;8.80;7.90;;;17.70;99.90;;;;;;5070388;28;20822;-50
2022/06/07 02:25:21;;;;;;;7.97;7.27;;;18.00;99.90;;;;;;5070070;28;20550;-51
2022/06/07 02:27:49;;;;;;;8.57;6.90;;;17.70;99.90;;;;;;5071543;28;20433;-51
2022/06/07 02:30:16;;;;;;;8.10;7.40;;;17.90;99.90;;;;;;5069558;28;20853;-51
2022/06/07 02:32:43;;;;;;;8.90;7.80;;;17.80;99.90;;;;;;5071352;28;20436;-51
2022/06/07 02:35:10;;;;;;;8.63;7.80;;;17.80;99.90;;;;;;5071773;28;20440;-51
2022/06/07 02:37:39;;;;;;;8.63;7.83;;;17.70;99.90;;;;;;5070262;28;20448;-51
2022/06/07 02:40:08;;;;;;;8.00;7.30;;;17.70;99.90;;;;;;5071164;28;20764;-51
2022/06/07 02:42:34;;;;;;;7.87;7.07;;;18.00;99.90;;;;;;5070052;28;20442;-51
2022/06/07 02:45:04;;;;;;;10.40;7.80;;;17.70;99.90;;;;;;5070009;28;20909;-51
2022/06/07 02:47:31;;;;;;;8.90;8.00;;;17.60;99.90;;;;;;5069855;28;20464;-50
2022/06/07 02:50:04;;;;;;;9.53;8.07;;;17.60;99.90;;;;;;5069727;28;21003;-51
2022/06/07 02:52:34;;;;;;;13.00;7.77;;;17.50;99.90;;;;;;5070051;28;20957;-51
2022/06/07 02:55:10;;;;;;;8.50;7.70;;;17.20;99.90;;;;;;5070184;28;20959;-51
2022/06/07 02:57:38;;;;;;;8.70;7.77;;;17.20;99.90;;;;;;5071170;28;20428;-51
2022/06/07 03:00:09;;;;;;;9.20;7.80;;;17.50;99.90;;;;;;5069646;28;20550;-51
2022/06/07 03:02:35;;;;;;;8.43;7.27;;;17.40;99.90;;;;;;5069904;28;20447;-51
2022/06/07 03:05:02;;;;;;;9.50;8.50;;;17.90;99.90;;;;;;5069782;28;20447;-51
2022/06/07 03:07:29;;;;;;;7.90;7.10;;;17.40;99.90;;;;;;5069723;28;20442;-51
2022/06/07 03:09:56;;;;;;;8.80;7.93;;;17.30;99.90;;;;;;5069327;28;20489;-51
2022/06/07 03:12:23;;;;;;;8.07;7.23;;;17.50;99.90;;;;;;5069632;28;20572;-51
2022/06/07 03:14:50;;;;;;;10.37;7.43;;;17.30;99.90;;;;;;5069546;28;20550;-51
2022/06/07 03:17:19;;;;;;;10.43;8.27;;;16.90;99.90;;;;;;5069696;28;21034;-51
2022/06/07 03:19:46;;;;;;;11.73;7.80;;;17.20;99.90;;;;;;5069359;28;21050;-51
2022/06/07 03:22:14;;;;;;;10.87;7.70;;;17.20;99.90;;;;;;5069631;28;20466;-51
2022/06/07 03:24:42;;;;;;;9.87;7.83;;;17.80;99.90;;;;;;5069896;28;20461;-51
2022/06/07 03:27:09;;;;;;;8.60;7.33;;;17.60;99.90;;;;;;5069566;28;20550;-51
2022/06/07 03:29:37;;;;;;;9.40;6.47;;;17.50;99.90;;;;;;5069335;28;20467;-51
2022/06/07 03:32:05;;;;;;;7.00;6.40;;;17.60;99.90;;;;;;5069296;28;20520;-50
2022/06/07 03:34:34;;;;;;;7.60;5.93;;;17.60;99.90;;;;;;5069541;28;20441;-51
2022/06/07 03:37:01;;;;;;;8.80;6.50;;;17.80;99.90;;;;;;5071321;28;20518;-51
2022/06/07 03:39:28;;;;;;;7.70;5.43;;;17.70;99.90;;;;;;5072349;28;20855;-50
2022/06/07 03:41:58;;;;;;;7.23;5.43;;;17.70;99.90;;;;;;5073099;28;20529;-51
2022/06/07 03:44:27;;;;;;;5.97;5.43;;;17.60;99.90;;;;;;5074581;28;20432;-51
2022/06/07 03:47:07;;;;;;;6.70;5.90;;;17.90;99.90;;;;;;5072961;28;20455;-52
2022/06/07 03:49:36;;;;;;;6.13;5.00;;;17.90;99.90;;;;;;5072472;28;20497;-51
2022/06/07 03:52:03;;;;;;;6.37;4.90;;;17.90;99.90;;;;;;5072778;28;20490;-51
2022/06/07 03:54:35;;;;;;;5.30;4.63;;;17.90;99.90;;;;;;5072933;28;21024;-51
2022/06/07 03:57:03;;;;;;;8.30;4.87;;;17.80;99.90;;;;;;5072734;28;20578;-50
2022/06/07 03:59:29;;;;;;;4.77;4.23;;;18.00;99.90;;;;;;5072792;28;20470;-51
2022/06/07 04:01:57;;;;;;;4.67;4.20;;;17.80;99.90;;;;;;5074168;28;20445;-51
2022/06/07 04:04:25;;;;;;;8.00;4.20;;;18.00;99.90;;;;;;5072733;28;20444;-51
2022/06/07 04:09:45;;;;;;;5.03;4.20;;;18.30;99.90;;;;;;5072365;28;20455;-51
2022/06/07 04:12:20;;;;;;;5.73;3.30;;;18.40;99.90;;;;;;5072512;28;20532;-51
2022/06/07 04:14:49;;;;;;;7.90;4.07;;;18.40;99.90;;;;;;5072740;28;20453;-50
2022/06/07 04:17:16;;;;;;;4.13;3.70;;;18.50;99.90;;;;;;5072703;28;20460;-50
2022/06/07 04:19:48;;;;;;;5.20;3.40;;;18.50;99.90;;;;;;5072249;28;20491;-51
2022/06/07 04:22:18;;;;;;;3.83;3.43;;;18.50;99.90;;;;;;5072439;28;20467;-51
2022/06/07 04:24:52;;;;;;;3.63;3.10;;;18.50;99.90;;;;;;5072315;28;20448;-51
2022/06/07 04:27:21;;;;;;;8.40;3.80;;;18.20;99.90;;;;;;5072145;28;20537;-51
2022/06/07 04:29:52;;;;;;;5.73;3.40;;;18.30;99.90;;;;;;5071783;28;20470;-51
2022/06/07 04:32:21;;;;;;;4.93;3.43;;;18.30;99.90;;;;;;5072002;28;20536;-51
2022/06/07 04:34:50;;;;;;;3.70;3.30;;;18.70;99.90;;;;;;5072083;28;20447;-51
2022/06/07 04:37:19;;;;;;;4.20;3.03;;;18.60;99.90;;;;;;5072077;28;20453;-51
2022/06/07 04:39:47;;;;;;;6.90;4.67;;;19.10;99.90;;;;;;5071451;28;20452;-51
2022/06/07 04:42:14;;;;;;;5.33;3.73;;;19.00;99.90;;;;;;5071931;28;21130;-52
2022/06/07 04:44:53;;;;;;;3.77;3.40;;;19.60;99.90;;;;;;5071912;28;20454;-51
2022/06/07 04:47:28;;;;;;;4.60;3.23;;;18.90;99.90;;;;;;5071628;28;20900;-51
2022/06/07 04:49:54;;;;;;;6.10;3.70;;;19.00;99.90;;;;;;5071025;28;20445;-52
2022/06/07 04:52:22;;;;;;;3.53;3.23;;;19.40;99.90;;;;;;5071380;28;20472;-51
2022/06/07 04:54:51;;;;;;;4.87;3.80;;;19.50;99.90;;;;;;5071532;28;20453;-51
2022/06/07 04:57:19;;;;;;;3.93;3.07;;;19.60;99.90;;;;;;5071764;28;20536;-51
2022/06/07 04:59:46;;;;;;;4.87;3.70;;;19.80;99.90;;;;;;5071219;28;20463;-51
2022/06/07 05:02:13;;;;;;;9.77;4.30;;;19.70;99.80;;;;;;5071525;28;20468;-51
2022/06/07 05:04:40;;;;;;;6.93;3.53;;;19.90;99.60;;;;;;5071215;28;20449;-51
2022/06/07 05:07:15;;;;;;;4.30;3.10;;;19.80;99.30;;;;;;5071560;28;20475;-51
2022/06/07 05:09:59;;;;;;;3.60;2.90;;;19.80;99.10;;;;;;5071134;28;20532;-51
2022/06/07 05:12:32;;;;;;;7.13;3.30;;;19.90;99.10;;;;;;5071025;28;20500;-51
2022/06/07 05:15:00;;;;;;;5.13;3.23;;;19.60;99.10;;;;;;5071227;28;20446;-50
2022/06/07 05:17:33;;;;;;;3.80;2.90;;;19.30;98.80;;;;;;5071055;28;20450;-51
2022/06/07 05:20:01;;;;;;;4.17;3.00;;;19.30;98.70;;;;;;5070736;28;20958;-51
2022/06/07 05:22:29;;;;;;;3.17;2.40;;;19.40;98.60;;;;;;5072039;28;20454;-51
2022/06/07 05:24:59;;;;;;;3.80;2.70;;;19.50;98.50;;;;;;5070774;28;20449;-51
2022/06/07 05:27:38;;;;;;;5.20;2.83;;;19.50;98.40;;;;;;5070749;28;20970;-51
2022/06/07 05:30:10;;;;;;;4.40;3.00;;;19.50;98.00;;;;;;5070621;28;20456;-51
2022/06/07 05:32:45;;;;;;;3.83;2.40;;;19.70;98.10;;;;;;5070761;28;21016;-50
2022/06/07 05:35:15;;;;;;;4.57;3.40;;;20.00;98.10;;;;;;5070781;28;20856;-51
2022/06/07 05:37:48;;;;;;;3.57;2.57;;;20.10;97.90;;;;;;5070504;28;20456;-51
2022/06/07 05:40:24;;;;;;;4.50;2.80;;;19.90;97.30;;;;;;5070197;28;20452;-51
2022/06/07 05:42:52;;;;;;;4.70;2.40;;;20.40;97.30;;;;;;5070825;28;20467;-51
2022/06/07 05:45:27;;;;;;;6.00;2.80;;;20.50;97.00;;;;;;5070816;28;20441;-51
2022/06/07 05:47:55;;;;;;;3.97;2.27;;;20.00;96.50;;;;;;5070689;28;20450;-51
2022/06/07 05:50:22;;;;;;;3.37;2.80;;;20.30;96.30;;;;;;5070234;28;20795;-50
2022/06/07 05:52:54;;;;;;;3.00;2.70;;;20.40;96.00;;;;;;5070353;28;20998;-50
2022/06/07 05:55:21;;;;;;;4.37;2.50;;;20.40;96.10;;;;;;5069858;28;20443;-51
2022/06/07 05:57:54;;;;;;;2.70;2.30;;;20.60;95.30;;;;;;5070198;28;20477;-51
2022/06/07 06:00:24;;;;;;;2.23;1.80;;;20.70;95.00;;;;;;5069299;28;20454;-51
2022/06/07 06:02:51;;;;;;;4.00;2.30;;;21.00;94.60;;;;;;5069719;28;20486;-50
2022/06/07 06:05:31;;;;;;;5.23;2.47;;;20.90;94.00;;;;;;5070527;28;20965;-51
2022/06/07 06:10:47;;;;;;;2.70;2.10;;;21.00;93.60;;;;;;5069751;28;20469;-52
2022/06/07 06:13:15;;;;;;;6.30;2.37;;;21.10;93.30;;;;;;5069937;28;20489;-51
2022/06/07 06:15:42;;;;;;;3.93;2.40;;;20.70;93.10;;;;;;5070505;28;20451;-51
2022/06/07 06:18:09;;;;;;;3.37;2.10;;;20.80;92.90;;;;;;5070142;28;20482;-51
2022/06/07 06:20:41;;;;;;;4.40;2.33;;;20.90;92.70;;;;;;5069779;28;20537;-51
2022/06/07 06:23:16;;;;;;;2.57;2.00;;;21.00;92.60;;;;;;5069698;28;20453;-51
2022/06/07 06:25:43;;;;;;;3.27;1.90;;;20.90;92.30;;;;;;5069994;28;20462;-52
2022/06/07 06:28:12;;;;;;;3.13;2.30;;;21.00;91.80;;;;;;5069562;28;20452;-50
2022/06/07 06:30:43;;;;;;;3.53;2.17;;;20.70;91.60;;;;;;5085316;22;20459;-44
2022/06/07 06:33:18;;;;;;;5.97;2.60;;;21.00;91.40;;;;;;5065583;28;20475;-43
2022/06/07 06:35:48;;;;;;;3.20;2.00;;;21.30;91.30;;;;;;5066940;28;20444;-44
2022/06/07 06:38:15;;;;;;;3.20;1.97;;;21.10;90.90;;;;;;5051583;28;20433;-43
2022/06/07 06:40:43;;;;;;;2.73;2.00;;;21.40;90.60;;;;;;5049582;28;20457;-43
2022/06/07 06:43:12;;;;;;;5.30;2.40;;;21.40;90.40;;;;;;5050449;28;20452;-44
2022/06/07 06:45:51;;;;;;;3.40;2.43;;;21.30;90.00;;;;;;5050151;28;20459;-42
2022/06/07 06:48:21;;;;;;;4.53;2.60;;;21.50;89.30;;;;;;5049986;28;20831;-41
2022/06/07 06:50:50;;;;;;;4.03;2.13;;;21.80;89.20;;;;;;5050036;28;20460;-44
2022/06/07 06:53:19;;;;;;;5.57;2.07;;;21.80;88.70;;;;;;5049972;28;20492;-45
2022/06/07 06:55:50;;;;;;;3.13;2.20;;;21.50;87.50;;;;;;5050523;28;20815;-43
2022/06/07 06:58:18;;;;;;;7.07;2.27;;;21.90;86.80;;;;;;5050127;28;20489;-44
2022/06/07 07:00:45;;;;;;;3.93;2.30;;;22.00;86.10;;;;;;5049674;28;20453;-44
2022/06/07 07:03:14;;;;;;;3.23;2.03;;;22.10;86.40;;;;;;5050294;28;20461;-43
2022/06/07 07:05:41;;;;;;;9.03;1.80;;;22.20;85.60;;;;;;5049619;28;20450;-43
2022/06/07 07:08:10;;;;;;;5.00;3.60;;;22.20;84.80;;;;;;5050070;28;20458;-43
2022/06/07 07:10:37;;;;;;;2.67;2.00;;;22.30;85.10;;;;;;5049688;28;20457;-44
2022/06/07 07:13:03;;;;;;;4.50;2.10;;;22.00;84.20;;;;;;5052734;28;20566;-44
2022/06/07 07:15:36;;;;;;;4.83;2.03;;;22.40;84.10;;;;;;5054479;28;20558;-43
2022/06/07 07:18:09;;;;;;;2.87;2.10;;;22.40;83.00;;;;;;5054378;28;20443;-42
2022/06/07 07:20:43;;;;;;;3.60;1.57;;;22.20;82.30;;;;;;5053672;28;20536;-42
2022/06/07 07:23:10;;;;;;;3.50;1.40;;;22.50;82.00;;;;;;5053803;28;20552;-45
2022/06/07 07:25:38;;;;;;;3.17;1.63;;;22.20;80.50;;;;;;5053976;28;20447;-45
2022/06/07 07:28:05;;;;;;;3.67;1.30;;;22.20;80.00;;;;;;5053631;28;20529;-42
2022/06/07 07:30:33;;;;;;;3.70;1.63;;;22.10;80.00;;;;;;5054535;28;20528;-43
2022/06/07 07:33:00;;;;;;;5.03;2.30;;;22.20;79.10;;;;;;5053104;28;20565;-42
2022/06/07 07:35:27;;;;;;;8.60;2.80;;;21.90;79.20;;;;;;5053926;28;20453;-42
2022/06/07 07:38:05;;;;;;;2.50;1.80;;;22.30;79.00;;;;;;5054138;28;20829;-42
2022/06/07 07:40:34;;;;;;;3.67;1.67;;;22.10;79.30;;;;;;5069719;28;20862;-42
2022/06/07 07:43:05;;;;;;;4.53;1.70;;;22.10;78.80;;;;;;5053493;28;20556;-44
2022/06/07 07:45:35;;;;;;;1.97;1.30;;;21.90;77.40;;;;;;5053572;28;20453;-44
2022/06/07 07:48:02;;;;;;;2.50;1.40;;;22.20;77.20;;;;;;5053503;28;20485;-46
2022/06/07 07:50:34;;;;;;;2.97;1.97;;;22.00;76.70;;;;;;5054521;28;20454;-42
2022/06/07 07:53:01;;;;;;;1.87;1.50;;;22.30;76.30;;;;;;5053953;28;20481;-43
2022/06/07 07:55:32;;;;;;;4.93;2.83;;;22.40;76.10;;;;;;5053670;28;20818;-43
2022/06/07 07:58:01;;;;;;;5.37;2.80;;;22.50;75.70;;;;;;5053310;28;20957;-42
2022/06/07 08:00:31;;;;;;;5.33;2.00;;;22.50;75.20;;;;;;5069952;28;20967;-43
2022/06/07 08:03:04;;;;;;;3.33;1.70;;;22.70;74.80;;;;;;5053163;28;20441;-42
2022/06/07 08:05:36;;;;;;;2.63;1.40;;;22.80;74.10;;;;;;5053844;28;21019;-42
2022/06/07 08:08:04;;;;;;;3.97;1.73;;;22.90;73.00;;;;;;5053665;28;20472;-44
2022/06/07 08:10:32;;;;;;;2.23;1.43;;;23.10;73.10;;;;;;5054449;28;20428;-45
2022/06/07 08:13:00;;;;;;;2.50;1.50;;;23.30;72.40;;;;;;5054830;28;20483;-45
2022/06/07 08:15:29;;;;;;;3.03;1.40;;;23.40;70.70;;;;;;5054940;28;20826;-44
2022/06/07 08:17:57;;;;;;;3.10;1.60;;;23.60;71.40;;;;;;5054997;28;20445;-43
2022/06/07 08:20:24;;;;;;;3.37;1.30;;;23.80;71.20;;;;;;5054077;28;20500;-43
2022/06/07 08:22:51;;;;;;;2.07;1.60;;;23.90;69.50;;;;;;5054225;28;20454;-41
2022/06/07 08:25:20;;;;;;;1.60;1.00;;;24.00;68.60;;;;;;5054134;28;20479;-43
2022/06/07 08:27:48;;;;;;;3.33;1.27;;;24.00;68.20;;;;;;5054555;28;20498;-43
2022/06/07 08:30:16;;;;;;;7.57;1.73;;;24.00;67.70;;;;;;5053662;28;20433;-41
2022/06/07 08:32:44;;;;;;;2.53;1.40;;;23.80;67.80;;;;;;5053775;28;20535;-43
2022/06/07 08:37:59;;;;;;;3.23;2.00;;;24.10;68.20;;;;;;5053501;28;20436;-44
2022/06/07 08:40:33;;;;;;;3.50;2.40;;;24.10;67.70;;;;;;5052129;28;20526;-44
2022/06/07 08:43:07;;;;;;;2.40;1.30;;;24.20;66.70;;;;;;5053505;28;20528;-43
2022/06/07 08:45:38;;;;;;;3.13;1.77;;;24.20;66.10;;;;;;5053279;28;20441;-45
2022/06/07 08:48:12;;;;;;;2.97;1.50;;;24.80;67.40;;;;;;5053451;28;21008;-45
2022/06/07 08:50:41;;;;;;;1.60;1.13;;;24.50;66.10;;;;;;5053366;28;20435;-43
2022/06/07 08:53:14;;;;;;;5.40;1.57;;;24.40;65.80;;;;;;5054069;28;20488;-43
2022/06/07 08:55:44;;;;;;;8.80;2.03;;;24.50;65.70;;;;;;5053822;28;20435;-43
2022/06/07 08:58:16;;;;;;;3.10;1.37;;;24.70;66.40;;;;;;5053446;28;20580;-44
2022/06/07 09:00:48;;;;;;;6.80;1.90;;;24.60;66.20;;;;;;5053508;28;20427;-43
2022/06/07 09:03:45;;;;;;;3.20;1.63;;;24.60;66.40;;;;;;5053959;28;20466;-44
2022/06/07 09:06:18;;;;;;;2.40;1.27;;;24.40;65.90;;;;;;5053384;28;20798;-46
2022/06/07 09:08:48;;;;;;;4.17;1.30;;;24.30;66.60;;;;;;5052659;28;20465;-44
2022/06/07 09:14:11;;;;;;;1.80;1.50;;;24.20;66.50;;;;;;5053547;28;20482;-44
2022/06/07 09:16:40;;;;;;;4.83;2.30;;;24.10;66.90;;;;;;5053275;28;20453;-43
2022/06/07 09:19:12;;;;;;;6.93;2.77;;;24.10;66.90;;;;;;5053106;28;20810;-44
2022/06/07 09:21:42;;;;;;;7.53;2.60;;;24.00;67.00;;;;;;5052903;28;20462;-43
2022/06/07 09:24:20;;;;;;;8.77;2.00;;;24.10;67.10;;;;;;5053204;28;20441;-44
2022/06/07 09:26:47;;;;;;;2.43;1.63;;;24.40;67.20;;;;;;5052679;28;20430;-44
2022/06/07 09:29:19;;;;;;;3.83;1.30;;;24.10;66.00;;;;;;5052424;28;20446;-43
2022/06/07 09:31:48;;;;;;;2.20;1.33;;;24.10;65.60;;;;;;5052784;28;20504;-42
2022/06/07 09:34:21;;;;;;;7.17;1.83;;;24.20;65.20;;;;;;5053980;28;20481;-43
2022/06/07 09:36:55;;;;;;;3.70;1.93;;;24.40;65.20;;;;;;5052634;28;20480;-42
2022/06/07 09:39:29;;;;;;;3.13;2.20;;;24.50;65.70;;;;;;5052142;28;20439;-44
2022/06/07 09:42:02;;;;;;;2.30;1.63;;;24.70;66.30;;;;;;5052598;28;20450;-43
2022/06/07 09:44:34;;;;;;;2.23;1.20;;;24.70;65.30;;;;;;5053151;28;20442;-42
2022/06/07 09:47:04;;;;;;;3.77;1.53;;;24.80;64.40;;;;;;5052682;28;20465;-45
2022/06/07 09:49:36;;;;;;;3.43;1.70;;;24.80;63.70;;;;;;5051914;28;20445;-42
2022/06/07 09:52:20;;;;;;;3.13;2.00;;;24.80;63.90;;;;;;5052102;28;20455;-42
2022/06/07 09:54:50;;;;;;;2.60;1.80;;;24.80;63.90;;;;;;5052523;28;20969;-44
2022/06/07 09:57:37;;;;;;;3.17;1.73;;;24.90;64.40;;;;;;5052264;28;20529;-44
2022/06/07 10:00:16;;;;;;;2.30;1.70;;;24.80;63.60;;;;;;5052123;28;20430;-43
2022/06/07 10:03:11;;;;;;;1.60;1.30;;;25.00;63.90;;;;;;5052484;28;20688;-44
2022/06/07 10:05:45;;;;;;;2.70;1.87;;;25.00;63.90;;;;;;5067922;28;20442;-43
2022/06/07 10:08:27;;;;;;;2.33;1.63;;;25.10;64.10;;;;;;5052357;28;20466;-44
2022/06/07 10:10:58;;;;;;;2.00;1.60;;;25.20;62.60;;;;;;5052029;28;20454;-45
2022/06/07 10:13:46;;;;;;;3.70;1.80;;;25.20;63.80;;;;;;5052183;28;20486;-43
2022/06/07 10:16:21;;;;;;;5.83;1.90;;;25.30;63.40;;;;;;5051897;28;20504;-43
2022/06/07 10:18:56;;;;;;;3.20;2.00;;;25.30;63.40;;;;;;5051752;28;20445;-44
2022/06/07 10:21:40;;;;;;;12.03;1.90;;;25.50;63.50;;;;;;5067120;28;20477;-43
2022/06/07 10:24:17;;;;;;;3.43;2.07;;;25.50;62.80;;;;;;5052112;28;20470;-43
2022/06/07 10:26:59;;;;;;;2.37;1.80;;;25.70;62.60;;;;;;5051655;28;20439;-45
2022/06/07 10:29:54;;;;;;;4.90;2.67;;;25.80;62.60;;;;;;5051555;28;20477;-43
2022/06/07 10:32:32;;;;;;;4.00;1.90;;;25.80;61.80;;;;;;5051977;28;20899;-43
2022/06/07 10:35:05;;;;;;;2.50;1.90;;;25.80;62.00;;;;;;5051361;28;20430;-45
2022/06/07 10:37:39;;;;;;;4.40;2.27;;;25.90;62.30;;;;;;5051612;28;20923;-43
2022/06/07 10:40:16;;;;;;;2.40;1.80;;;26.00;62.00;;;;;;5051192;28;20787;-43
2022/06/07 10:42:46;;;;;;;2.70;2.13;;;26.10;60.80;;;;;;5051863;28;20458;-45
2022/06/07 10:45:18;;;;;;;3.63;1.80;;;26.20;60.40;;;;;;5051475;28;20446;-44
2022/06/07 10:47:56;;;;;;;2.70;1.90;;;26.20;60.00;;;;;;5054116;28;20446;-45
2022/06/07 10:50:27;;;;;;;5.60;1.80;;;26.20;59.70;;;;;;5055880;28;20488;-47
2022/06/07 10:53:01;;;;;;;5.50;2.20;;;26.20;59.80;;;;;;5054726;28;20481;-44
2022/06/07 10:55:34;;;;;;;3.33;1.63;;;26.10;59.50;;;;;;5055358;28;20497;-44
2022/06/07 10:58:25;;;;;;;4.17;1.80;;;25.90;60.00;;;;;;5055337;28;20431;-42
2022/06/07 11:00:55;;;;;;;7.50;2.50;;;25.80;60.00;;;;;;5055210;28;20450;-44
2022/06/07 11:03:31;;;;;;;2.77;1.40;;;25.60;60.10;;;;;;5054901;28;20434;-44
2022/06/07 11:11:41;;;;;;;1.70;1.50;;;25.60;59.70;;;;;;5055433;28;20947;-43
2022/06/07 11:14:31;;;;;;;6.73;2.20;;;25.60;59.60;;;;;;5055106;28;20528;-43
2022/06/07 11:17:03;;;;;;;3.03;1.60;;;25.60;59.40;;;;;;5054933;28;20434;-43
2022/06/07 11:19:32;;;;;;;4.20;2.20;;;25.60;59.30;;;;;;5055094;28;20943;-46
2022/06/07 11:22:03;;;;;;;2.90;1.40;;;25.60;59.20;;;;;;5055635;28;20454;-43
2022/06/07 11:24:33;;;;;;;5.50;1.87;;;25.60;59.30;;;;;;5055158;28;20465;-43
2022/06/07 11:27:19;;;;;;;3.93;1.60;;;25.50;58.80;;;;;;5053922;28;20450;-44
2022/06/07 11:29:47;;;;;;;4.40;1.93;;;25.50;58.10;;;;;;5055040;28;20442;-43
2022/06/07 11:32:55;;;;;;;5.30;1.93;;;25.40;58.00;;;;;;5054846;28;20881;-43
2022/06/07 11:35:47;;;;;;;6.00;2.00;;;25.50;57.10;;;;;;5034383;28;20450;-45
2022/06/07 11:38:29;;;;;;;5.27;2.27;;;25.50;57.60;;;;;;5053530;28;20529;-45
2022/06/07 11:41:40;;;;;;;1.97;1.60;;;25.50;58.00;;;;;;5054877;28;20461;-43
2022/06/07 11:44:34;;;;;;;3.30;1.77;;;25.40;58.30;;;;;;5054518;28;20878;-43
2022/06/07 11:47:21;;;;;;;2.30;1.80;;;25.30;58.70;;;;;;5054287;28;20438;-44
2022/06/07 11:49:58;;;;;;;2.40;1.93;;;25.20;58.60;;;;;;5054297;28;20434;-43
2022/06/07 11:52:28;;;;;;;2.00;1.60;;;25.20;58.50;;;;;;5054490;28;20450;-43
2022/06/07 11:54:58;;;;;;;7.00;2.37;;;25.20;58.60;;;;;;5054418;28;20482;-42
2022/06/07 11:57:31;;;;;;;2.60;1.70;;;25.10;58.40;;;;;;5054054;28;20533;-42
2022/06/07 12:00:01;;;;;;;4.33;1.80;;;25.50;58.80;;;;;;5052998;28;20435;-41
2022/06/07 12:02:32;;;;;;;7.87;2.30;;;25.40;58.90;;;;;;5054329;28;20455;-42
2022/06/07 12:05:06;;;;;;;3.27;1.67;;;25.50;58.90;;;;;;5054088;28;20445;-44
2022/06/07 12:07:44;;;;;;;4.00;3.20;;;25.40;58.60;;;;;;5054179;28;20773;-44
2022/06/07 12:10:33;;;;;;;2.77;1.90;;;25.60;58.50;;;;;;5053972;28;20439;-46
2022/06/07 12:13:03;;;;;;;2.83;2.00;;;25.70;58.60;;;;;;5054339;28;20474;-43
2022/06/07 12:15:37;;;;;;;3.97;1.77;;;25.80;58.70;;;;;;5054764;28;20443;-44
2022/06/07 12:18:15;;;;;;;5.30;2.10;;;25.80;58.30;;;;;;5054304;28;20430;-42
2022/06/07 12:20:42;;;;;;;2.60;1.83;;;25.80;58.00;;;;;;5053250;28;20434;-44
2022/06/07 12:23:21;;;;;;;5.97;2.33;;;25.90;58.00;;;;;;5053823;28;20439;-42
2022/06/07 12:25:57;;;;;;;3.80;1.70;;;26.00;58.20;;;;;;5054328;28;20492;-43
2022/06/07 12:28:26;;;;;;;4.17;2.00;;;25.80;57.80;;;;;;5054286;28;20957;-44
2022/06/07 12:30:55;;;;;;;2.43;1.63;;;25.70;58.10;;;;;;5053584;28;20546;-47
2022/06/07 12:33:28;;;;;;;6.00;1.77;;;25.90;57.70;;;;;;5054711;28;20482;-43
2022/06/07 12:35:59;;;;;;;2.10;1.43;;;25.90;57.30;;;;;;5054492;28;20437;-44
2022/06/07 12:38:27;;;;;;;2.07;1.40;;;26.10;57.50;;;;;;5054647;28;20442;-44
2022/06/07 12:40:55;;;;;;;2.50;1.93;;;26.10;57.00;;;;;;5054260;28;20477;-44
2022/06/07 12:43:26;;;;;;;3.37;1.90;;;26.10;56.60;;;;;;5053660;28;20554;-45
2022/06/07 12:45:59;;;;;;;2.80;1.80;;;26.10;56.40;;;;;;5054572;28;20513;-45
2022/06/07 12:48:27;;;;;;;3.77;1.60;;;26.10;56.70;;;;;;5053393;28;20482;-45
2022/06/07 12:50:55;;;;;;;2.03;1.67;;;26.10;56.70;;;;;;5053791;28;20985;-45
2022/06/07 12:53:24;;;;;;;2.50;1.60;;;26.10;57.00;;;;;;5053483;28;20466;-44
2022/06/07 12:55:58;;;;;;;2.37;1.50;;;26.20;56.70;;;;;;5053514;28;20804;-45
2022/06/07 12:58:28;;;;;;;2.93;2.00;;;26.20;56.30;;;;;;5053440;28;20427;-45
2022/06/07 13:00:55;;;;;;;1.60;1.43;;;26.20;55.80;;;;;;5053105;28;20458;-44
2022/06/07 13:03:26;;;;;;;4.80;1.70;;;26.10;54.90;;;;;;5053437;28;20510;-44
2022/06/07 13:05:57;;;;;;;3.00;1.40;;;25.90;54.50;;;;;;5053356;28;20844;-46
2022/06/07 13:08:26;;;;;;;3.67;2.10;;;26.00;54.20;;;;;;5053391;28;20438;-44
2022/06/07 13:10:54;;;;;;;3.53;1.53;;;25.80;54.40;;;;;;5053339;28;20463;-44
2022/06/07 13:13:25;;;;;;;5.07;2.10;;;25.80;55.10;;;;;;5053138;28;20472;-45
2022/06/07 13:15:55;;;;;;;2.27;1.70;;;25.80;55.20;;;;;;5052961;28;20459;-45
2022/06/07 13:18:27;;;;;;;2.43;1.70;;;25.80;55.10;;;;;;5052945;28;20466;-44
2022/06/07 13:21:10;;;;;;;3.07;1.30;;;25.90;55.20;;;;;;5051727;28;20471;-45
2022/06/07 13:23:41;;;;;;;3.30;1.70;;;26.10;55.30;;;;;;5053400;28;20434;-44
2022/06/07 13:26:20;;;;;;;2.67;1.50;;;26.20;55.00;;;;;;5053174;28;20438;-45
2022/06/07 13:28:50;;;;;;;2.53;1.67;;;26.20;54.70;;;;;;5052703;28;20434;-44
2022/06/07 13:31:33;;;;;;;2.50;1.50;;;26.10;54.90;;;;;;5052934;28;20752;-44